Time;durP1;ratioP1;P1;durP2;ratioP2;P2;SDS_P1;SDS_P2;PMS_P1;PMS_P2;Temp;Humidity;BMP_temperature;BMP_pressure;BME280_temperature;BME280_humidity;BME280_pressure;Samples;Min_cycle;Max_cycle;Signal;HPM_P1;HPM_P2
2023/05/18 00:02:15;;;;;;;2.92;0.57;;;;;;;30.12;35.08;100991.00;7386455;19;20014;-82
2023/05/18 00:04:42;;;;;;;3.75;0.80;;;;;;;31.22;34.36;100991.88;7394845;19;20010;-81
2023/05/18 00:07:09;;;;;;;2.28;1.10;;;;;;;32.53;32.86;100988.09;7392330;19;20014;-81
2023/05/18 00:09:39;;;;;;;2.25;1.35;;;;;;;32.01;33.17;100989.72;7392582;19;20070;-80
2023/05/18 00:12:07;;;;;;;;;;;;;;;33.23;31.50;100989.09;7390119;19;20054;-80
2023/05/18 00:14:34;;;;;;;14.70;1.45;;;;;;;33.14;31.60;100987.72;7394117;19;19974;-80
2023/05/18 00:17:03;;;;;;;1.00;0.50;;;;;;;24.63;40.86;101009.41;7392599;19;20015;-81
2023/05/18 00:19:29;;;;;;;20.02;1.42;;;;;;;22.42;46.18;101007.47;7389556;19;20044;-82
2023/05/18 00:21:56;;;;;;;1.83;0.40;;;;;;;22.36;48.16;100999.03;7393032;19;20015;-79
2023/05/18 00:24:22;;;;;;;3.60;0.80;;;;;;;23.12;47.01;101006.50;7385110;19;20015;-81
2023/05/18 00:26:48;;;;;;;0.52;0.52;;;;;;;24.06;45.34;101002.38;7392241;19;20553;-78
2023/05/18 00:29:15;;;;;;;3.67;1.08;;;;;;;22.82;47.13;101005.81;7386525;19;20377;-85
2023/05/18 00:31:43;;;;;;;0.40;0.40;;;;;;;21.13;51.42;101003.16;7390501;19;20014;-85
2023/05/18 00:34:10;;;;;;;2.83;0.65;;;;;;;21.45;53.36;101001.47;7394193;19;20027;-87
2023/05/18 00:36:37;;;;;;;4.20;0.65;;;;;;;22.59;51.13;100991.84;7391563;19;20011;-87
2023/05/18 00:39:05;;;;;;;1.73;0.77;;;;;;;22.87;48.90;100997.22;7392054;19;20019;-88
2023/05/18 00:41:32;;;;;;;1.17;0.55;;;;;;;21.54;53.44;101003.22;7390974;19;20023;-85
2023/05/18 00:43:59;;;;;;;2.05;1.30;;;;;;;22.48;50.92;100999.69;7387718;19;20018;-87
2023/05/18 00:46:27;;;;;;;0.75;0.43;;;;;;;22.34;50.64;100998.00;7390809;19;20104;-87
2023/05/18 00:48:56;;;;;;;2.72;0.47;;;;;;;21.78;52.93;101006.16;7390575;19;20025;-87
2023/05/18 00:51:23;;;;;;;0.43;0.43;;;;;;;22.21;52.17;101001.47;7388582;19;20007;-88
2023/05/18 00:53:52;;;;;;;0.93;0.93;;;;;;;25.90;45.88;100998.19;7391423;19;20026;-87
2023/05/18 00:56:22;;;;;;;1.40;0.70;;;;;;;22.22;50.56;101011.50;7391067;19;20022;-87
2023/05/18 00:58:54;;;;;;;0.70;0.70;;;;;;;22.60;50.40;101004.75;7394076;19;20007;-86
2023/05/18 01:01:28;;;;;;;1.08;0.77;;;;;;;21.26;54.35;101011.09;7388736;19;20661;-84
2023/05/18 01:03:56;;;;;;;1.55;0.90;;;;;;;21.10;56.17;101010.63;7393553;19;20010;-86
2023/05/18 01:06:25;;;;;;;2.72;1.10;;;;;;;21.83;54.34;101008.19;7396082;19;20015;-85
2023/05/18 01:08:53;;;;;;;1.50;1.02;;;;;;;20.64;57.91;101007.63;7395340;19;20022;-86
2023/05/18 01:11:48;;;;;;;0.85;0.82;;;;;;;20.44;59.57;101002.28;7393089;19;20070;-86
2023/05/18 01:14:35;;;;;;;0.77;0.47;;;;;;;19.90;64.32;101006.63;7398003;19;20078;-87
2023/05/18 01:17:32;;;;;;;0.90;0.77;;;;;;;19.73;66.16;101008.66;7396871;19;20019;-86
2023/05/18 01:20:07;;;;;;;0.35;0.25;;;;;;;19.62;68.11;101009.41;7395753;19;20243;-86
2023/05/18 01:22:47;;;;;;;1.10;0.43;;;;;;;22.98;56.02;100999.16;7397639;19;20014;-85
2023/05/18 01:25:35;;;;;;;2.90;0.60;;;;;;;24.59;50.17;100991.88;7395175;19;20022;-86
2023/05/18 01:28:07;;;;;;;2.63;1.13;;;;;;;21.53;57.23;101002.44;7396498;19;20039;-85
2023/05/18 01:30:37;;;;;;;1.00;0.80;;;;;;;23.67;52.12;100999.34;7396024;19;20010;-85
2023/05/18 01:33:11;;;;;;;4.47;0.65;;;;;;;26.71;45.39;100995.09;7397958;19;20028;-86
2023/05/18 01:35:40;;;;;;;2.97;1.45;;;;;;;27.38;42.50;100988.28;7399905;19;20018;-86
2023/05/18 01:38:06;;;;;;;2.38;0.65;;;;;;;26.56;43.37;100987.19;7398374;19;20019;-86
2023/05/18 01:40:42;;;;;;;2.33;0.80;;;;;;;27.84;40.49;100986.31;7394034;19;20074;-86
2023/05/18 01:43:16;;;;;;;0.47;0.45;;;;;;;28.41;39.03;100994.03;7393796;19;20038;-86
2023/05/18 01:45:47;;;;;;;1.38;1.10;;;;;;;26.97;40.26;100989.19;7396132;19;20461;-85
2023/05/18 01:48:20;;;;;;;0.90;0.73;;;;;;;28.95;38.19;100992.66;7396052;19;20022;-87
2023/05/18 01:50:49;;;;;;;1.00;0.90;;;;;;;29.16;37.14;100983.81;7395978;19;20023;-87
2023/05/18 01:53:24;;;;;;;0.77;0.73;;;;;;;29.38;36.66;100988.72;7397500;19;20053;-87
2023/05/18 01:55:52;;;;;;;0.88;0.63;;;;;;;30.14;35.33;100994.03;7397119;19;20359;-86
2023/05/18 01:58:21;;;;;;;0.63;0.63;;;;;;;30.45;35.01;100989.59;7397592;19;20011;-86
2023/05/18 02:00:48;;;;;;;1.13;1.02;;;;;;;30.63;34.68;100983.28;7393927;19;21137;-87
2023/05/18 02:03:15;;;;;;;1.65;1.55;;;;;;;30.81;34.03;100986.19;7397121;19;20011;-86
2023/05/18 02:05:42;;;;;;;0.32;0.32;;;;;;;31.20;33.41;100988.84;7394777;19;20026;-87
2023/05/18 02:08:08;;;;;;;0.45;0.45;;;;;;;31.27;33.09;100981.47;7394940;19;20014;-87
2023/05/18 02:10:34;;;;;;;1.23;1.05;;;;;;;31.52;32.61;100987.88;7394878;19;20014;-87
2023/05/18 02:13:00;;;;;;;1.33;0.52;;;;;;;32.17;31.88;100993.88;7395525;19;20018;-87
2023/05/18 02:15:27;;;;;;;0.75;0.38;;;;;;;32.04;31.95;100994.25;7392571;19;20015;-87
2023/05/18 02:17:56;;;;;;;4.38;0.73;;;;;;;31.29;32.36;100988.16;7395332;19;20025;-86
2023/05/18 02:20:23;;;;;;;1.65;0.50;;;;;;;31.56;31.63;100991.09;7393115;19;20018;-87
2023/05/18 02:22:51;;;;;;;4.15;1.30;;;;;;;31.35;31.12;100985.78;7396063;19;20018;-87
2023/05/18 02:25:17;;;;;;;2.58;0.80;;;;;;;31.14;31.17;100991.22;7395433;19;20019;-87
2023/05/18 02:27:44;;;;;;;0.52;0.52;;;;;;;31.03;31.49;100991.72;7394458;19;20034;-87
2023/05/18 02:30:14;;;;;;;3.47;0.82;;;;;;;31.26;31.60;100995.09;7395199;19;20019;-87
2023/05/18 02:32:41;;;;;;;0.65;0.57;;;;;;;31.28;31.16;100998.13;7395591;19;20430;-86
2023/05/18 02:35:08;;;;;;;1.52;1.10;;;;;;;31.22;31.32;100988.25;7395738;19;20018;-87
2023/05/18 02:37:38;;;;;;;0.50;0.50;;;;;;;31.13;31.20;100988.91;7393836;19;20114;-87
2023/05/18 02:40:08;;;;;;;0.52;0.52;;;;;;;30.68;31.74;101001.66;7395026;19;20010;-87
2023/05/18 02:42:34;;;;;;;0.57;0.57;;;;;;;30.48;32.01;100992.06;7393216;19;20101;-87
2023/05/18 02:45:01;;;;;;;1.02;0.73;;;;;;;30.09;32.67;100992.16;7395885;19;20007;-87
2023/05/18 02:47:29;;;;;;;0.77;0.73;;;;;;;30.46;32.02;100991.13;7394247;19;20022;-87
2023/05/18 02:49:55;;;;;;;10.95;0.95;;;;;;;30.41;31.75;100987.13;7392695;19;20022;-87
2023/05/18 02:52:21;;;;;;;2.70;1.38;;;;;;;30.30;32.08;100992.59;7393639;19;20019;-87
2023/05/18 02:54:47;;;;;;;0.82;0.57;;;;;;;30.53;32.01;100990.28;7391174;19;20007;-63
2023/05/18 02:57:22;;;;;;;1.83;0.65;;;;;;;30.61;31.75;100980.25;7396161;19;20020;-64
2023/05/18 03:00:10;;;;;;;0.60;0.57;;;;;;;30.89;31.43;100984.78;7393295;19;20014;-64
2023/05/18 03:02:37;;;;;;;1.15;1.05;;;;;;;31.03;31.11;100980.22;7393153;19;20007;-64
2023/05/18 03:05:04;;;;;;;4.85;1.30;;;;;;;30.89;31.45;100976.16;7396129;19;20325;-64
2023/05/18 03:07:31;;;;;;;1.48;0.80;;;;;;;30.97;31.21;100985.44;7394334;19;20017;-64
2023/05/18 03:09:58;;;;;;;1.20;0.93;;;;;;;31.08;30.67;100987.81;7394180;19;20016;-65
2023/05/18 03:12:24;;;;;;;1.00;1.00;;;;;;;31.02;30.83;100977.91;7395634;19;20577;-65
2023/05/18 03:14:51;;;;;;;1.05;0.95;;;;;;;31.11;31.08;100991.63;7396636;19;20010;-65
2023/05/18 03:17:17;;;;;;;4.18;0.70;;;;;;;31.10;30.97;100982.22;7394020;19;20018;-65
2023/05/18 03:19:43;;;;;;;2.42;1.17;;;;;;;31.20;30.61;100977.31;7394243;19;20401;-64
2023/05/18 03:22:10;;;;;;;1.63;1.50;;;;;;;31.27;30.52;100979.31;7393527;19;20037;-64
2023/05/18 03:24:39;;;;;;;2.60;1.30;;;;;;;31.39;30.48;100986.09;7395334;19;20084;-64
2023/05/18 03:27:06;;;;;;;0.65;0.65;;;;;;;31.50;30.45;100986.94;7393972;19;20351;-64
2023/05/18 03:29:33;;;;;;;3.45;0.88;;;;;;;31.43;30.50;100985.69;7394067;19;20084;-65
2023/05/18 03:32:02;;;;;;;1.48;0.82;;;;;;;31.49;30.33;100980.41;7394920;19;20342;-65
2023/05/18 03:34:28;;;;;;;5.30;0.85;;;;;;;31.41;30.00;100974.78;7393080;19;20382;-65
2023/05/18 03:36:54;;;;;;;1.73;0.90;;;;;;;31.31;29.98;100981.78;7394453;19;20018;-65
2023/05/18 03:39:21;;;;;;;0.98;0.80;;;;;;;31.37;29.91;100980.19;7393250;19;20352;-65
2023/05/18 03:41:47;;;;;;;3.75;1.88;;;;;;;31.29;30.26;100979.53;7392751;19;20011;-64
2023/05/18 03:44:15;;;;;;;0.70;0.70;;;;;;;31.11;30.07;100969.38;7393359;19;20014;-65
2023/05/18 03:46:41;;;;;;;1.85;1.25;;;;;;;31.74;29.41;100974.53;7393226;19;20015;-65
2023/05/18 03:49:09;;;;;;;1.88;0.90;;;;;;;31.72;29.34;100974.34;7398397;19;20018;-64
2023/05/18 03:51:39;;;;;;;1.23;0.68;;;;;;;31.71;29.38;100978.59;7393806;19;20018;-65
2023/05/18 03:54:05;;;;;;;2.38;0.70;;;;;;;31.73;29.23;100982.38;7395236;19;20025;-65
2023/05/18 03:56:31;;;;;;;1.65;1.45;;;;;;;31.43;29.61;100977.81;7393702;19;20506;-64
2023/05/18 03:58:58;;;;;;;7.03;1.48;;;;;;;31.36;29.79;100984.41;7393337;19;20373;-64
2023/05/18 04:01:24;;;;;;;0.47;0.47;;;;;;;31.83;29.10;100980.34;7393993;19;20011;-65
2023/05/18 04:03:55;;;;;;;0.70;0.70;;;;;;;32.00;28.89;100985.31;7398676;19;20475;-64
2023/05/18 04:06:22;;;;;;;1.50;0.65;;;;;;;32.51;28.43;100985.03;7394124;19;20021;-65
2023/05/18 04:08:48;;;;;;;3.85;1.25;;;;;;;32.34;28.64;100990.13;7394509;19;20386;-64
2023/05/18 04:11:15;;;;;;;3.45;1.23;;;;;;;32.07;28.88;100982.31;7392631;19;20019;-64
2023/05/18 04:13:41;;;;;;;3.85;1.02;;;;;;;31.98;28.89;100985.13;7392904;19;20519;-65
2023/05/18 04:16:12;;;;;;;1.45;0.60;;;;;;;32.05;29.15;100990.03;7393322;19;20333;-65
2023/05/18 04:18:39;;;;;;;0.75;0.73;;;;;;;31.96;29.00;100982.88;7394086;19;20023;-65
2023/05/18 04:21:05;;;;;;;2.60;1.55;;;;;;;30.59;30.06;100982.19;7394981;19;20028;-64
2023/05/18 04:23:37;;;;;;;1.55;0.82;;;;;;;31.28;29.45;100988.72;7397100;19;20006;-64
2023/05/18 04:26:05;;;;;;;0.65;0.65;;;;;;;32.03;28.85;100992.75;7392823;19;20024;-64
2023/05/18 04:28:32;;;;;;;1.50;0.68;;;;;;;32.16;28.77;101001.00;7393302;19;20353;-64
2023/05/18 04:31:00;;;;;;;0.60;0.60;;;;;;;31.95;28.94;100997.84;7397686;19;20018;-65
2023/05/18 04:33:31;;;;;;;2.92;1.27;;;;;;;32.10;28.55;100997.63;7392943;19;20093;-65
2023/05/18 04:35:58;;;;;;;0.47;0.47;;;;;;;31.33;29.44;100997.13;7391122;19;20030;-65
2023/05/18 04:38:24;;;;;;;0.40;0.40;;;;;;;31.64;29.29;100991.00;7393304;19;20035;-65
2023/05/18 04:40:51;;;;;;;6.45;1.63;;;;;;;31.81;29.05;100993.81;7397793;19;20032;-65
2023/05/18 04:43:17;;;;;;;1.08;1.08;;;;;;;31.77;29.03;100994.25;7393696;19;20339;-65
2023/05/18 04:45:49;;;;;;;3.58;0.95;;;;;;;31.75;28.96;100999.09;7399290;19;20014;-64
2023/05/18 04:48:17;;;;;;;0.88;0.82;;;;;;;31.82;28.76;101001.84;7395289;19;20019;-65
2023/05/18 04:50:45;;;;;;;4.57;1.00;;;;;;;31.71;29.30;101004.50;7402376;19;20015;-64
2023/05/18 04:53:17;;;;;;;1.42;1.10;;;;;;;31.89;29.17;101003.09;7400152;19;20010;-64
2023/05/18 04:55:45;;;;;;;3.17;0.73;;;;;;;32.10;29.23;100997.63;7401758;19;20010;-63
2023/05/18 04:58:12;;;;;;;1.08;0.85;;;;;;;32.15;29.24;100999.47;7399276;19;20070;-63
2023/05/18 05:00:41;;;;;;;0.88;0.88;;;;;;;32.24;29.29;101007.41;7398894;19;20015;-63
2023/05/18 05:03:07;;;;;;;1.50;1.40;;;;;;;32.15;28.97;101000.25;7396143;19;20026;-64
2023/05/18 05:05:34;;;;;;;0.47;0.47;;;;;;;32.28;29.02;100996.19;7400265;19;20014;-64
2023/05/18 05:08:00;;;;;;;0.85;0.57;;;;;;;32.13;29.21;100999.31;7400110;19;20022;-64
2023/05/18 05:10:29;;;;;;;2.53;1.17;;;;;;;31.89;29.69;100994.47;7397725;19;20022;-64
2023/05/18 05:12:55;;;;;;;0.80;0.73;;;;;;;31.87;29.79;100992.19;7399949;19;20039;-64
2023/05/18 05:15:23;;;;;;;3.33;1.15;;;;;;;31.87;29.89;101000.06;7397636;19;20007;-65
2023/05/18 05:17:50;;;;;;;2.05;0.60;;;;;;;31.93;29.93;101000.53;7397320;19;20459;-65
2023/05/18 05:20:17;;;;;;;0.45;0.43;;;;;;;31.91;30.48;101004.03;7396791;19;20463;-65
2023/05/18 05:22:43;;;;;;;0.43;0.43;;;;;;;31.32;30.72;101000.56;7397536;19;20021;-64
2023/05/18 05:25:12;;;;;;;0.90;0.75;;;;;;;32.26;30.18;101001.78;7397807;19;20070;-64
2023/05/18 05:27:38;;;;;;;0.85;0.60;;;;;;;32.09;30.02;100994.00;7398021;19;20007;-64
2023/05/18 05:30:06;;;;;;;2.60;0.77;;;;;;;32.00;30.46;100999.72;7397132;19;20044;-64
2023/05/18 05:32:35;;;;;;;1.38;0.88;;;;;;;32.29;30.20;100997.72;7398866;19;20355;-64
2023/05/18 05:35:02;;;;;;;1.23;1.13;;;;;;;32.28;30.40;100990.41;7401966;19;20022;-65
2023/05/18 05:37:28;;;;;;;1.75;0.90;;;;;;;32.44;30.43;100997.47;7400136;19;20070;-65
2023/05/18 05:39:55;;;;;;;2.67;0.98;;;;;;;32.69;29.81;100997.22;7399159;19;20010;-65
2023/05/18 05:42:22;;;;;;;6.43;1.23;;;;;;;32.83;30.03;100992.56;7398121;19;20011;-65
2023/05/18 05:44:48;;;;;;;2.28;1.02;;;;;;;32.78;30.10;100994.38;7400026;19;20018;-65
2023/05/18 05:47:14;;;;;;;14.70;1.63;;;;;;;33.15;29.82;100994.28;7399925;19;20026;-65
2023/05/18 05:49:41;;;;;;;1.55;0.85;;;;;;;33.21;29.84;100991.81;7398796;19;20556;-65
2023/05/18 05:52:08;;;;;;;1.92;1.55;;;;;;;33.23;29.79;100995.63;7399453;19;20019;-65
2023/05/18 05:54:34;;;;;;;4.50;1.92;;;;;;;33.41;29.78;100994.09;7399876;19;20531;-65
2023/05/18 05:57:02;;;;;;;2.72;1.45;;;;;;;33.62;29.65;100990.59;7400710;19;20014;-65
2023/05/18 05:59:28;;;;;;;3.53;1.42;;;;;;;33.78;29.52;100994.66;7396245;19;20029;-65
2023/05/18 06:01:55;;;;;;;2.70;1.65;;;;;;;33.88;29.44;100995.38;7395461;19;20010;-65
2023/05/18 06:04:21;;;;;;;3.15;1.27;;;;;;;33.78;29.58;100994.66;7397684;19;20014;-65
2023/05/18 06:06:48;;;;;;;7.50;1.42;;;;;;;33.61;29.25;100994.88;7397942;19;20010;-65
2023/05/18 06:09:15;;;;;;;2.15;1.23;;;;;;;33.66;29.85;101002.44;7396362;19;20359;-66
2023/05/18 06:11:42;;;;;;;4.50;1.08;;;;;;;33.73;29.25;101001.53;7395806;19;20015;-67
2023/05/18 06:14:08;;;;;;;2.75;1.95;;;;;;;33.67;29.88;100998.19;7397004;19;20333;-65
2023/05/18 06:16:35;;;;;;;1.10;0.90;;;;;;;33.50;29.56;101007.81;7399574;19;20355;-65
2023/05/18 06:19:02;;;;;;;5.68;0.80;;;;;;;33.34;29.49;101000.78;7396701;19;20010;-65
2023/05/18 06:21:28;;;;;;;2.78;1.02;;;;;;;33.25;29.47;101003.69;7395164;19;20011;-66
2023/05/18 06:23:55;;;;;;;1.85;1.02;;;;;;;33.18;29.71;101004.63;7396243;19;20013;-65
2023/05/18 06:26:40;;;;;;;2.75;1.83;;;;;;;33.25;29.62;101003.69;7401011;19;20015;-65
2023/05/18 06:29:26;;;;;;;3.83;0.88;;;;;;;32.85;30.70;100995.59;7399196;19;20017;-65
2023/05/18 06:32:02;;;;;;;1.63;0.82;;;;;;;32.22;31.26;100997.81;7396837;19;20022;-65
2023/05/18 06:34:36;;;;;;;4.72;1.27;;;;;;;31.97;31.60;101001.66;7395376;19;20027;-65
2023/05/18 06:37:03;;;;;;;0.73;0.63;;;;;;;31.99;31.47;100998.19;7395499;19;20026;-65
2023/05/18 06:39:29;;;;;;;1.63;0.45;;;;;;;32.03;31.58;100998.53;7394889;19;20014;-65
2023/05/18 06:41:55;;;;;;;2.25;1.05;;;;;;;32.92;31.12;101000.44;7394089;19;20019;-65
2023/05/18 06:44:25;;;;;;;2.00;1.17;;;;;;;33.14;31.07;101004.28;7393839;19;20014;-65
2023/05/18 06:47:15;;;;;;;2.55;0.88;;;;;;;32.94;31.27;101002.75;7393994;19;20359;-66
2023/05/18 06:49:41;;;;;;;4.40;1.42;;;;;;;33.78;31.05;100994.66;7396440;19;20015;-66
2023/05/18 06:52:08;;;;;;;13.70;1.83;;;;;;;34.32;30.58;100998.59;7394616;19;20010;-65
2023/05/18 06:54:36;;;;;;;4.13;0.75;;;;;;;34.68;30.45;100999.63;7395109;19;20377;-66
2023/05/18 06:57:03;;;;;;;1.58;1.05;;;;;;;34.91;30.43;100997.63;7394931;19;20467;-66
2023/05/18 06:59:29;;;;;;;6.85;0.98;;;;;;;34.92;30.14;100999.16;7395001;19;20011;-65
2023/05/18 07:01:56;;;;;;;0.43;0.25;;;;;;;35.38;29.86;100998.66;7391080;19;20370;-65
2023/05/18 07:04:23;;;;;;;1.48;0.77;;;;;;;35.36;29.67;100997.75;7397037;19;20007;-65
2023/05/18 07:06:50;;;;;;;1.65;0.75;;;;;;;35.53;29.20;101001.13;7398515;19;20124;-65
2023/05/18 07:09:16;;;;;;;1.40;1.05;;;;;;;35.88;29.10;101000.44;7400634;19;20014;-66
2023/05/18 07:11:45;;;;;;;13.73;1.13;;;;;;;36.14;28.87;101000.00;7390334;19;20010;-66
2023/05/18 07:14:12;;;;;;;2.20;0.70;;;;;;;36.32;29.37;100997.47;7392111;19;20022;-66
2023/05/18 07:16:38;;;;;;;3.35;1.13;;;;;;;36.49;29.11;101000.03;7393609;19;20019;-66
2023/05/18 07:19:04;;;;;;;1.65;1.10;;;;;;;36.54;28.77;101001.75;7388952;19;20045;-66
2023/05/18 07:21:31;;;;;;;6.93;0.85;;;;;;;36.61;28.42;100994.94;7390440;19;20347;-65
2023/05/18 07:23:58;;;;;;;4.45;1.27;;;;;;;36.31;28.39;100993.81;7388893;19;20111;-65
2023/05/18 07:26:24;;;;;;;3.00;0.60;;;;;;;36.57;28.29;101002.66;7396652;19;20014;-65
2023/05/18 07:28:51;;;;;;;0.60;0.40;;;;;;;36.94;27.50;101000.59;7392620;19;20073;-65
2023/05/18 07:31:19;;;;;;;1.77;0.93;;;;;;;36.86;27.76;100997.16;7393663;19;20052;-65
2023/05/18 07:33:46;;;;;;;2.67;1.08;;;;;;;37.12;27.87;100995.84;7399298;19;20037;-65
2023/05/18 07:36:13;;;;;;;4.18;1.50;;;;;;;37.49;27.06;100995.84;7396353;19;20010;-66
2023/05/18 07:38:40;;;;;;;2.60;0.85;;;;;;;37.56;27.13;100997.69;7393663;19;20022;-66
2023/05/18 07:41:06;;;;;;;1.23;0.98;;;;;;;37.59;26.99;100994.25;7396075;19;20016;-66
2023/05/18 07:43:32;;;;;;;7.80;0.82;;;;;;;37.26;27.34;100987.94;7391639;19;20011;-66
2023/05/18 07:45:59;;;;;;;2.20;0.98;;;;;;;37.65;27.13;100993.84;7397469;19;20026;-67
2023/05/18 07:48:25;;;;;;;3.60;1.45;;;;;;;37.93;26.97;100987.50;7394527;19;20463;-67
2023/05/18 07:50:52;;;;;;;2.42;0.80;;;;;;;38.19;27.15;100987.41;7399188;19;20010;-66
2023/05/18 07:53:19;;;;;;;1.25;0.60;;;;;;;38.30;27.92;100986.59;7392501;19;20010;-66
2023/05/18 07:55:45;;;;;;;6.82;1.55;;;;;;;38.34;27.26;100981.72;7396606;19;20015;-66
2023/05/18 07:58:12;;;;;;;3.00;1.15;;;;;;;38.35;26.87;100977.44;7393855;19;20066;-66
2023/05/18 08:00:38;;;;;;;1.58;0.60;;;;;;;38.58;26.98;100976.44;7393148;19;20039;-66
2023/05/18 08:03:05;;;;;;;1.42;0.52;;;;;;;38.67;26.66;100979.13;7392757;19;20007;-66
2023/05/18 08:05:31;;;;;;;13.98;0.93;;;;;;;38.53;27.02;100981.28;7395052;19;20091;-66
2023/05/18 08:07:58;;;;;;;1.40;0.98;;;;;;;38.68;26.96;100992.31;7394121;19;20536;-66
2023/05/18 08:10:24;;;;;;;1.40;0.40;;;;;;;38.45;27.41;100985.94;7393726;19;20011;-65
2023/05/18 08:12:51;;;;;;;2.67;0.68;;;;;;;38.21;27.36;100982.44;7393083;19;20365;-65
2023/05/18 08:15:17;;;;;;;6.18;0.68;;;;;;;38.24;26.93;100987.00;7402828;19;20007;-66
2023/05/18 08:17:44;;;;;;;0.85;0.63;;;;;;;38.16;27.08;100992.38;7401422;19;20014;-66
2023/05/18 08:20:10;;;;;;;2.17;0.93;;;;;;;38.42;27.17;100987.25;7401302;19;20018;-65
2023/05/18 08:22:36;;;;;;;3.92;1.27;;;;;;;38.67;26.70;100987.88;7399987;19;20014;-68
2023/05/18 08:25:03;;;;;;;2.05;0.77;;;;;;;38.85;27.12;100988.09;7402173;19;20479;-66
2023/05/18 08:27:30;;;;;;;8.15;1.20;;;;;;;38.97;26.95;100979.97;7401656;19;20573;-65
2023/05/18 08:29:56;;;;;;;2.15;0.65;;;;;;;39.01;27.03;100979.41;7400315;19;20018;-65
2023/05/18 08:32:22;;;;;;;5.93;1.10;;;;;;;38.71;27.18;100978.59;7402100;19;20026;-65
2023/05/18 08:34:50;;;;;;;1.33;0.52;;;;;;;38.66;27.36;100976.88;7401421;19;20011;-65
2023/05/18 08:37:16;;;;;;;8.85;1.77;;;;;;;39.36;26.85;100982.66;7398985;19;20015;-65
2023/05/18 08:39:44;;;;;;;4.20;1.25;;;;;;;39.79;25.82;100974.59;7401003;19;20006;-65
2023/05/18 08:42:20;;;;;;;18.20;1.40;;;;;;;39.53;26.10;100982.03;7399699;19;20017;-65
2023/05/18 08:44:52;;;;;;;3.92;1.17;;;;;;;39.56;26.35;100983.69;7401317;19;20074;-66
2023/05/18 08:47:24;;;;;;;4.63;0.98;;;;;;;39.57;26.19;100975.69;7399766;19;20082;-65
2023/05/18 08:49:51;;;;;;;1.00;0.35;;;;;;;39.53;24.23;100979.13;7402298;19;20014;-65
2023/05/18 08:52:21;;;;;;;2.47;1.15;;;;;;;39.99;23.80;100963.13;7400022;19;20014;-66
2023/05/18 08:54:50;;;;;;;0.95;0.32;;;;;;;40.09;23.75;100969.44;7401030;19;20015;-65
2023/05/18 08:57:21;;;;;;;0.38;0.30;;;;;;;40.22;22.94;100970.75;7403606;19;20010;-65
2023/05/18 08:59:48;;;;;;;1.17;0.52;;;;;;;40.32;23.05;100968.28;7398936;19;20360;-64
2023/05/18 09:02:15;;;;;;;4.47;0.85;;;;;;;40.12;23.69;100962.28;7399799;19;20021;-65
2023/05/18 09:04:43;;;;;;;0.50;0.30;;;;;;;39.93;22.96;100963.59;7399040;19;20021;-64
2023/05/18 09:07:10;;;;;;;2.80;0.70;;;;;;;40.24;22.89;100962.09;7400831;19;20014;-65
2023/05/18 09:09:37;;;;;;;1.83;0.80;;;;;;;40.00;23.16;100962.47;7398867;19;20010;-65
2023/05/18 09:12:04;;;;;;;0.63;0.20;;;;;;;39.37;23.56;100960.84;7398668;19;20111;-65
2023/05/18 09:14:31;;;;;;;0.85;0.43;;;;;;;39.45;23.60;100967.06;7396553;19;20351;-65
2023/05/18 09:16:58;;;;;;;5.55;0.98;;;;;;;39.97;22.94;100960.09;7399758;19;20379;-65
2023/05/18 09:19:25;;;;;;;2.92;0.82;;;;;;;40.08;23.29;100956.25;7399737;19;20018;-65
2023/05/18 09:21:51;;;;;;;1.17;0.65;;;;;;;40.26;22.65;100965.84;7397890;19;20025;-64
2023/05/18 09:24:19;;;;;;;1.83;0.30;;;;;;;40.39;22.39;100950.38;7398231;19;20035;-64
2023/05/18 09:26:46;;;;;;;3.00;0.77;;;;;;;40.44;21.95;100957.16;7399264;19;20002;-64
2023/05/18 09:29:17;;;;;;;2.72;0.45;;;;;;;40.46;22.51;100957.28;7396621;19;20357;-64
2023/05/18 09:31:46;;;;;;;9.85;0.43;;;;;;;40.74;21.99;100950.47;7399584;19;20329;-64
2023/05/18 09:34:13;;;;;;;0.40;0.22;;;;;;;40.79;21.94;100957.25;7401525;19;20018;-64
2023/05/18 09:36:41;;;;;;;13.18;2.00;;;;;;;40.83;22.35;100960.38;7396171;19;20460;-58
2023/05/18 09:39:11;;;;;;;2.30;0.45;;;;;;;41.27;20.90;100965.19;7396977;19;20014;-58
2023/05/18 09:41:39;;;;;;;0.28;0.17;;;;;;;41.03;21.07;100960.47;7396637;19;20016;-57
2023/05/18 09:44:11;;;;;;;1.85;0.82;;;;;;;40.94;21.20;100965.22;7396672;19;20014;-57
2023/05/18 09:46:39;;;;;;;1.85;0.45;;;;;;;41.01;21.64;100963.31;7396836;19;20477;-63
2023/05/18 09:49:07;;;;;;;0.20;0.20;;;;;;;40.70;21.16;100964.16;7399438;19;20025;-63
2023/05/18 09:51:35;;;;;;;4.07;0.63;;;;;;;40.29;20.77;100963.75;7396718;19;20014;-64
2023/05/18 09:54:05;;;;;;;1.77;0.50;;;;;;;40.42;21.48;100965.84;7397245;19;20034;-64
2023/05/18 09:56:36;;;;;;;5.65;0.20;;;;;;;40.55;21.33;100962.81;7396421;19;20006;-63
2023/05/18 09:59:16;;;;;;;7.53;1.50;;;;;;;40.41;22.27;100965.09;7396603;19;20022;-63
2023/05/18 10:02:10;;;;;;;0.98;0.43;;;;;;;40.76;21.86;100961.53;7396093;19;20078;-64
2023/05/18 10:04:39;;;;;;;2.38;0.28;;;;;;;40.89;21.33;100960.66;7397031;19;20028;-64
2023/05/18 10:07:14;;;;;;;1.27;0.20;;;;;;;40.53;20.11;100956.88;7396406;19;20018;-57
2023/05/18 10:09:41;;;;;;;2.15;0.30;;;;;;;40.86;21.56;100956.13;7397069;19;20078;-58
2023/05/18 10:12:11;;;;;;;0.52;0.52;;;;;;;41.03;20.21;100951.72;7396620;19;20049;-58
2023/05/18 10:14:40;;;;;;;2.22;0.30;;;;;;;41.42;20.26;100943.88;7397321;19;20017;-58
2023/05/18 10:17:07;;;;;;;8.50;0.90;;;;;;;41.40;20.89;100949.66;7395689;19;20417;-58
2023/05/18 10:19:34;;;;;;;2.50;0.60;;;;;;;41.36;20.49;100948.72;7397212;19;20034;-58
2023/05/18 10:22:04;;;;;;;4.28;0.63;;;;;;;41.14;20.42;100951.47;7396229;19;20007;-58
2023/05/18 10:24:34;;;;;;;2.63;0.40;;;;;;;41.05;20.96;100952.56;7396492;19;20508;-58
2023/05/18 10:27:06;;;;;;;1.10;0.65;;;;;;;40.50;21.63;100955.25;7395528;19;20014;-58
2023/05/18 10:29:36;;;;;;;1.95;0.22;;;;;;;40.69;21.44;100953.91;7395053;19;20013;-58
2023/05/18 10:32:03;;;;;;;4.75;0.77;;;;;;;40.55;22.10;100964.97;7394950;19;20014;-58
2023/05/18 10:34:31;;;;;;;5.93;0.45;;;;;;;40.55;21.50;100959.13;7396081;19;20028;-58
2023/05/18 10:37:03;;;;;;;2.25;0.30;;;;;;;40.30;21.69;100953.59;7394431;19;20039;-58
2023/05/18 10:39:30;;;;;;;1.65;0.28;;;;;;;39.95;22.09;100954.94;7395242;19;20011;-58
2023/05/18 10:41:59;;;;;;;3.00;0.32;;;;;;;40.30;22.53;100959.44;7393749;19;20018;-58
2023/05/18 10:44:25;;;;;;;7.47;0.95;;;;;;;40.37;22.35;100949.53;7395450;19;20040;-57
2023/05/18 10:46:52;;;;;;;3.00;0.77;;;;;;;40.46;22.47;100954.34;7394917;19;20014;-57
2023/05/18 10:49:24;;;;;;;1.77;0.30;;;;;;;40.38;22.06;100953.94;7396112;19;20015;-57
2023/05/18 10:51:54;;;;;;;1.20;0.47;;;;;;;40.21;22.09;100945.88;7393163;19;20015;-57
2023/05/18 10:54:22;;;;;;;;;;;;;;;40.32;22.38;100956.59;7394372;19;20091;-57
2023/05/18 10:56:51;;;;;;;2.60;0.52;;;;;;;40.48;22.04;100957.38;7395309;19;20336;-57
2023/05/18 10:59:19;;;;;;;0.40;0.32;;;;;;;40.42;21.89;100952.00;7394567;19;20344;-57
2023/05/18 11:01:48;;;;;;;2.63;0.38;;;;;;;40.03;21.93;100949.47;7395534;19;20340;-57
2023/05/18 11:04:14;;;;;;;2.35;0.80;;;;;;;40.09;22.64;100952.66;7397271;19;20018;-57
2023/05/18 11:06:41;;;;;;;2.28;0.50;;;;;;;40.23;23.21;100946.72;7393748;19;20043;-57
2023/05/18 11:09:20;;;;;;;3.85;0.50;;;;;;;40.41;22.84;100952.66;7391893;19;20014;-58
2023/05/18 11:11:54;;;;;;;5.30;0.85;;;;;;;40.22;23.04;100947.41;7391985;19;20025;-57
2023/05/18 11:14:29;;;;;;;2.58;0.60;;;;;;;40.16;22.69;100947.09;7391465;19;20014;-57
2023/05/18 11:17:20;;;;;;;4.93;0.60;;;;;;;40.19;22.25;100952.41;7393169;19;20467;-57
2023/05/18 11:20:07;;;;;;;0.45;0.30;;;;;;;39.96;22.89;100947.66;7394078;19;20022;-57
2023/05/18 11:22:51;;;;;;;6.13;0.60;;;;;;;40.08;22.41;100950.41;7392780;19;20019;-57
2023/05/18 11:25:36;;;;;;;0.85;0.30;;;;;;;40.40;22.82;100948.97;7394646;19;20491;-58
2023/05/18 11:28:05;;;;;;;4.50;1.00;;;;;;;40.60;22.00;100952.81;7392752;19;20019;-58
2023/05/18 11:30:35;;;;;;;8.63;0.55;;;;;;;40.67;22.50;100950.91;7392959;19;20030;-57
2023/05/18 11:33:12;;;;;;;1.67;0.32;;;;;;;40.66;21.91;100950.13;7395579;19;20022;-57